sensor_id;sensor_type;location;lat;lon;timestamp;P1;durP1;ratioP1;P2;durP2;ratioP2
26756;SDS011;23848;49.798;10.228;2022-07-29T00:02:13;4.72;;;3.10;;
26756;SDS011;23848;49.798;10.228;2022-07-29T00:04:41;3.92;;;2.88;;
26756;SDS011;23848;49.798;10.228;2022-07-29T00:07:10;6.78;;;3.25;;
26756;SDS011;23848;49.798;10.228;2022-07-29T00:09:39;5.53;;;2.92;;
26756;SDS011;23848;49.798;10.228;2022-07-29T00:12:17;6.40;;;3.45;;
26756;SDS011;23848;49.798;10.228;2022-07-29T00:14:51;4.47;;;2.85;;
26756;SDS011;23848;49.798;10.228;2022-07-29T00:17:21;5.28;;;3.30;;
26756;SDS011;23848;49.798;10.228;2022-07-29T00:19:49;5.80;;;3.00;;
26756;SDS011;23848;49.798;10.228;2022-07-29T00:22:18;5.25;;;3.00;;
26756;SDS011;23848;49.798;10.228;2022-07-29T00:24:46;5.18;;;2.95;;
26756;SDS011;23848;49.798;10.228;2022-07-29T00:27:15;6.43;;;3.50;;
26756;SDS011;23848;49.798;10.228;2022-07-29T00:29:44;4.60;;;2.95;;
26756;SDS011;23848;49.798;10.228;2022-07-29T00:32:12;5.13;;;2.90;;
26756;SDS011;23848;49.798;10.228;2022-07-29T00:34:42;4.93;;;2.97;;
26756;SDS011;23848;49.798;10.228;2022-07-29T00:37:28;7.03;;;3.08;;
26756;SDS011;23848;49.798;10.228;2022-07-29T00:39:56;4.93;;;3.35;;
26756;SDS011;23848;49.798;10.228;2022-07-29T00:42:25;4.57;;;2.80;;
26756;SDS011;23848;49.798;10.228;2022-07-29T00:44:53;4.38;;;2.80;;
26756;SDS011;23848;49.798;10.228;2022-07-29T00:47:22;4.93;;;3.22;;
26756;SDS011;23848;49.798;10.228;2022-07-29T00:49:51;4.43;;;2.85;;
26756;SDS011;23848;49.798;10.228;2022-07-29T00:52:20;6.63;;;3.13;;
26756;SDS011;23848;49.798;10.228;2022-07-29T00:54:48;4.07;;;2.63;;
26756;SDS011;23848;49.798;10.228;2022-07-29T00:57:16;4.88;;;3.30;;
26756;SDS011;23848;49.798;10.228;2022-07-29T00:59:45;4.60;;;3.22;;
26756;SDS011;23848;49.798;10.228;2022-07-29T01:02:13;5.80;;;3.65;;
26756;SDS011;23848;49.798;10.228;2022-07-29T01:04:42;6.88;;;3.20;;
26756;SDS011;23848;49.798;10.228;2022-07-29T01:07:11;5.00;;;2.75;;
26756;SDS011;23848;49.798;10.228;2022-07-29T01:09:40;6.25;;;3.17;;
26756;SDS011;23848;49.798;10.228;2022-07-29T01:12:12;6.72;;;3.35;;
26756;SDS011;23848;49.798;10.228;2022-07-29T01:14:41;5.65;;;3.30;;
26756;SDS011;23848;49.798;10.228;2022-07-29T01:17:10;4.70;;;2.90;;
26756;SDS011;23848;49.798;10.228;2022-07-29T01:19:45;6.15;;;3.20;;
26756;SDS011;23848;49.798;10.228;2022-07-29T01:22:23;5.72;;;3.22;;
26756;SDS011;23848;49.798;10.228;2022-07-29T01:27:52;6.85;;;3.55;;
26756;SDS011;23848;49.798;10.228;2022-07-29T01:30:31;5.40;;;3.20;;
26756;SDS011;23848;49.798;10.228;2022-07-29T01:33:02;5.90;;;3.25;;
26756;SDS011;23848;49.798;10.228;2022-07-29T01:35:31;5.90;;;3.38;;
26756;SDS011;23848;49.798;10.228;2022-07-29T01:38:05;7.78;;;3.53;;
26756;SDS011;23848;49.798;10.228;2022-07-29T01:40:34;6.35;;;3.17;;
26756;SDS011;23848;49.798;10.228;2022-07-29T01:43:06;5.18;;;3.20;;
26756;SDS011;23848;49.798;10.228;2022-07-29T01:45:39;6.32;;;3.17;;
26756;SDS011;23848;49.798;10.228;2022-07-29T01:48:10;6.18;;;3.38;;
26756;SDS011;23848;49.798;10.228;2022-07-29T01:50:40;6.25;;;3.63;;
26756;SDS011;23848;49.798;10.228;2022-07-29T01:53:09;6.47;;;3.53;;
26756;SDS011;23848;49.798;10.228;2022-07-29T01:55:39;7.32;;;3.25;;
26756;SDS011;23848;49.798;10.228;2022-07-29T01:58:08;7.15;;;3.42;;
26756;SDS011;23848;49.798;10.228;2022-07-29T02:00:38;6.40;;;3.45;;
26756;SDS011;23848;49.798;10.228;2022-07-29T02:03:09;5.85;;;3.28;;
26756;SDS011;23848;49.798;10.228;2022-07-29T02:05:40;7.47;;;3.72;;
26756;SDS011;23848;49.798;10.228;2022-07-29T02:08:09;6.35;;;3.53;;
26756;SDS011;23848;49.798;10.228;2022-07-29T02:10:38;7.28;;;3.92;;
26756;SDS011;23848;49.798;10.228;2022-07-29T02:13:08;7.07;;;3.70;;
26756;SDS011;23848;49.798;10.228;2022-07-29T02:15:39;5.88;;;3.38;;
26756;SDS011;23848;49.798;10.228;2022-07-29T02:18:09;6.60;;;3.38;;
26756;SDS011;23848;49.798;10.228;2022-07-29T02:20:39;6.20;;;3.97;;
26756;SDS011;23848;49.798;10.228;2022-07-29T02:23:08;6.18;;;3.33;;
26756;SDS011;23848;49.798;10.228;2022-07-29T02:25:38;5.85;;;3.72;;
26756;SDS011;23848;49.798;10.228;2022-07-29T02:28:08;6.38;;;3.38;;
26756;SDS011;23848;49.798;10.228;2022-07-29T02:30:36;6.03;;;3.40;;
26756;SDS011;23848;49.798;10.228;2022-07-29T02:33:08;6.07;;;3.53;;
26756;SDS011;23848;49.798;10.228;2022-07-29T02:35:39;6.15;;;3.67;;
26756;SDS011;23848;49.798;10.228;2022-07-29T02:38:08;6.43;;;4.38;;
26756;SDS011;23848;49.798;10.228;2022-07-29T02:40:54;6.95;;;3.35;;
26756;SDS011;23848;49.798;10.228;2022-07-29T02:43:23;6.43;;;3.78;;
26756;SDS011;23848;49.798;10.228;2022-07-29T02:45:52;6.47;;;3.60;;
26756;SDS011;23848;49.798;10.228;2022-07-29T02:48:27;5.93;;;3.63;;
26756;SDS011;23848;49.798;10.228;2022-07-29T02:51:04;5.82;;;3.53;;
26756;SDS011;23848;49.798;10.228;2022-07-29T02:53:33;7.47;;;3.65;;
26756;SDS011;23848;49.798;10.228;2022-07-29T02:56:04;8.45;;;3.42;;
26756;SDS011;23848;49.798;10.228;2022-07-29T02:58:37;6.57;;;3.85;;
26756;SDS011;23848;49.798;10.228;2022-07-29T03:01:13;6.43;;;3.78;;
26756;SDS011;23848;49.798;10.228;2022-07-29T03:03:49;5.47;;;3.40;;
26756;SDS011;23848;49.798;10.228;2022-07-29T03:06:19;5.88;;;3.50;;
26756;SDS011;23848;49.798;10.228;2022-07-29T03:09:04;4.93;;;3.50;;
26756;SDS011;23848;49.798;10.228;2022-07-29T03:11:38;7.60;;;3.33;;
26756;SDS011;23848;49.798;10.228;2022-07-29T03:14:15;5.68;;;3.92;;
26756;SDS011;23848;49.798;10.228;2022-07-29T03:16:46;6.88;;;3.90;;
26756;SDS011;23848;49.798;10.228;2022-07-29T03:19:16;5.07;;;3.95;;
26756;SDS011;23848;49.798;10.228;2022-07-29T03:21:44;8.48;;;3.90;;
26756;SDS011;23848;49.798;10.228;2022-07-29T03:24:24;5.57;;;3.53;;
26756;SDS011;23848;49.798;10.228;2022-07-29T03:26:53;6.45;;;3.50;;
26756;SDS011;23848;49.798;10.228;2022-07-29T03:29:22;8.98;;;4.05;;
26756;SDS011;23848;49.798;10.228;2022-07-29T03:31:58;6.20;;;3.40;;
26756;SDS011;23848;49.798;10.228;2022-07-29T03:34:30;6.35;;;3.65;;
26756;SDS011;23848;49.798;10.228;2022-07-29T03:36:58;5.47;;;3.63;;
26756;SDS011;23848;49.798;10.228;2022-07-29T03:39:27;6.70;;;4.00;;
26756;SDS011;23848;49.798;10.228;2022-07-29T03:41:58;8.15;;;3.45;;
26756;SDS011;23848;49.798;10.228;2022-07-29T03:44:27;7.22;;;3.90;;
26756;SDS011;23848;49.798;10.228;2022-07-29T03:46:57;7.55;;;3.70;;
26756;SDS011;23848;49.798;10.228;2022-07-29T03:49:29;5.50;;;3.55;;
26756;SDS011;23848;49.798;10.228;2022-07-29T03:51:59;6.00;;;3.60;;
26756;SDS011;23848;49.798;10.228;2022-07-29T03:54:28;7.00;;;3.58;;
26756;SDS011;23848;49.798;10.228;2022-07-29T03:56:56;6.82;;;4.15;;
26756;SDS011;23848;49.798;10.228;2022-07-29T03:59:26;5.55;;;3.30;;
26756;SDS011;23848;49.798;10.228;2022-07-29T04:01:55;6.65;;;3.83;;
26756;SDS011;23848;49.798;10.228;2022-07-29T04:04:24;5.03;;;3.58;;
26756;SDS011;23848;49.798;10.228;2022-07-29T04:06:55;6.68;;;3.63;;
26756;SDS011;23848;49.798;10.228;2022-07-29T04:09:23;5.75;;;3.40;;
26756;SDS011;23848;49.798;10.228;2022-07-29T04:11:52;5.88;;;3.90;;
26756;SDS011;23848;49.798;10.228;2022-07-29T04:14:28;9.50;;;3.85;;
26756;SDS011;23848;49.798;10.228;2022-07-29T04:16:57;6.28;;;3.50;;
26756;SDS011;23848;49.798;10.228;2022-07-29T04:19:25;10.38;;;4.15;;
26756;SDS011;23848;49.798;10.228;2022-07-29T04:21:55;7.53;;;3.90;;
26756;SDS011;23848;49.798;10.228;2022-07-29T04:24:24;7.10;;;3.50;;
26756;SDS011;23848;49.798;10.228;2022-07-29T04:26:52;6.13;;;4.03;;
26756;SDS011;23848;49.798;10.228;2022-07-29T04:29:20;5.88;;;3.90;;
26756;SDS011;23848;49.798;10.228;2022-07-29T04:31:49;9.07;;;3.88;;
26756;SDS011;23848;49.798;10.228;2022-07-29T04:34:17;6.78;;;3.45;;
26756;SDS011;23848;49.798;10.228;2022-07-29T04:36:46;7.95;;;3.70;;
26756;SDS011;23848;49.798;10.228;2022-07-29T04:39:16;5.88;;;3.90;;
26756;SDS011;23848;49.798;10.228;2022-07-29T04:41:48;7.43;;;3.72;;
26756;SDS011;23848;49.798;10.228;2022-07-29T04:44:17;5.90;;;3.10;;
26756;SDS011;23848;49.798;10.228;2022-07-29T04:46:53;5.97;;;3.65;;
26756;SDS011;23848;49.798;10.228;2022-07-29T04:49:22;5.40;;;3.47;;
26756;SDS011;23848;49.798;10.228;2022-07-29T04:51:50;6.38;;;3.38;;
26756;SDS011;23848;49.798;10.228;2022-07-29T04:54:30;6.00;;;3.08;;
26756;SDS011;23848;49.798;10.228;2022-07-29T04:56:58;5.65;;;3.22;;
26756;SDS011;23848;49.798;10.228;2022-07-29T04:59:26;5.47;;;3.28;;
26756;SDS011;23848;49.798;10.228;2022-07-29T05:01:55;7.13;;;3.15;;
26756;SDS011;23848;49.798;10.228;2022-07-29T05:04:23;6.20;;;3.40;;
26756;SDS011;23848;49.798;10.228;2022-07-29T05:06:52;5.82;;;3.03;;
26756;SDS011;23848;49.798;10.228;2022-07-29T05:09:20;7.97;;;3.22;;
26756;SDS011;23848;49.798;10.228;2022-07-29T05:11:50;7.53;;;3.47;;
26756;SDS011;23848;49.798;10.228;2022-07-29T05:14:18;6.45;;;3.03;;
26756;SDS011;23848;49.798;10.228;2022-07-29T05:16:46;5.68;;;3.15;;
26756;SDS011;23848;49.798;10.228;2022-07-29T05:19:17;5.60;;;3.28;;
26756;SDS011;23848;49.798;10.228;2022-07-29T05:21:45;5.18;;;3.33;;
26756;SDS011;23848;49.798;10.228;2022-07-29T05:24:14;5.90;;;3.58;;
26756;SDS011;23848;49.798;10.228;2022-07-29T05:26:42;5.47;;;3.42;;
26756;SDS011;23848;49.798;10.228;2022-07-29T05:29:12;4.72;;;2.80;;
26756;SDS011;23848;49.798;10.228;2022-07-29T05:32:00;4.50;;;2.85;;
26756;SDS011;23848;49.798;10.228;2022-07-29T05:34:29;4.32;;;2.80;;
26756;SDS011;23848;49.798;10.228;2022-07-29T05:36:57;5.57;;;3.47;;
26756;SDS011;23848;49.798;10.228;2022-07-29T05:39:26;5.38;;;3.10;;
26756;SDS011;23848;49.798;10.228;2022-07-29T05:42:14;5.00;;;3.17;;
26756;SDS011;23848;49.798;10.228;2022-07-29T05:44:44;5.80;;;3.40;;
26756;SDS011;23848;49.798;10.228;2022-07-29T05:47:13;4.68;;;3.00;;
26756;SDS011;23848;49.798;10.228;2022-07-29T05:49:42;8.82;;;3.30;;
26756;SDS011;23848;49.798;10.228;2022-07-29T05:52:10;5.70;;;3.33;;
26756;SDS011;23848;49.798;10.228;2022-07-29T05:54:39;5.32;;;3.45;;
26756;SDS011;23848;49.798;10.228;2022-07-29T05:57:07;5.68;;;3.53;;
26756;SDS011;23848;49.798;10.228;2022-07-29T05:59:36;4.90;;;3.17;;
26756;SDS011;23848;49.798;10.228;2022-07-29T06:02:06;5.07;;;2.95;;
26756;SDS011;23848;49.798;10.228;2022-07-29T06:04:34;7.05;;;3.20;;
26756;SDS011;23848;49.798;10.228;2022-07-29T06:07:02;5.10;;;3.25;;
26756;SDS011;23848;49.798;10.228;2022-07-29T06:09:31;5.72;;;3.13;;
26756;SDS011;23848;49.798;10.228;2022-07-29T06:12:01;4.78;;;3.08;;
26756;SDS011;23848;49.798;10.228;2022-07-29T06:14:30;4.50;;;3.03;;
26756;SDS011;23848;49.798;10.228;2022-07-29T06:16:58;5.60;;;2.88;;
26756;SDS011;23848;49.798;10.228;2022-07-29T06:19:28;7.70;;;3.30;;
26756;SDS011;23848;49.798;10.228;2022-07-29T06:21:56;4.75;;;2.92;;
26756;SDS011;23848;49.798;10.228;2022-07-29T06:24:25;7.68;;;3.40;;
26756;SDS011;23848;49.798;10.228;2022-07-29T06:26:53;7.40;;;2.92;;
26756;SDS011;23848;49.798;10.228;2022-07-29T06:29:22;5.28;;;3.15;;
26756;SDS011;23848;49.798;10.228;2022-07-29T06:31:50;4.85;;;3.15;;
26756;SDS011;23848;49.798;10.228;2022-07-29T06:34:19;5.05;;;2.97;;
26756;SDS011;23848;49.798;10.228;2022-07-29T06:36:48;4.60;;;2.80;;
26756;SDS011;23848;49.798;10.228;2022-07-29T06:39:19;8.00;;;3.20;;
26756;SDS011;23848;49.798;10.228;2022-07-29T06:41:47;5.65;;;3.05;;
26756;SDS011;23848;49.798;10.228;2022-07-29T06:44:16;5.60;;;3.15;;
26756;SDS011;23848;49.798;10.228;2022-07-29T06:46:45;8.05;;;3.10;;
26756;SDS011;23848;49.798;10.228;2022-07-29T06:49:15;4.22;;;2.97;;
26756;SDS011;23848;49.798;10.228;2022-07-29T06:51:43;5.80;;;2.75;;
26756;SDS011;23848;49.798;10.228;2022-07-29T06:54:14;3.78;;;2.42;;
26756;SDS011;23848;49.798;10.228;2022-07-29T06:56:43;8.45;;;2.88;;
26756;SDS011;23848;49.798;10.228;2022-07-29T06:59:11;9.40;;;3.85;;
26756;SDS011;23848;49.798;10.228;2022-07-29T07:01:41;6.65;;;2.75;;
26756;SDS011;23848;49.798;10.228;2022-07-29T07:04:10;4.30;;;2.60;;
26756;SDS011;23848;49.798;10.228;2022-07-29T07:06:40;5.22;;;2.85;;
26756;SDS011;23848;49.798;10.228;2022-07-29T07:09:08;4.35;;;2.50;;
26756;SDS011;23848;49.798;10.228;2022-07-29T07:11:38;4.43;;;2.45;;
26756;SDS011;23848;49.798;10.228;2022-07-29T07:14:06;4.47;;;2.55;;
26756;SDS011;23848;49.798;10.228;2022-07-29T07:16:35;5.13;;;2.72;;
26756;SDS011;23848;49.798;10.228;2022-07-29T07:19:03;5.30;;;2.80;;
26756;SDS011;23848;49.798;10.228;2022-07-29T07:21:32;4.07;;;2.55;;
26756;SDS011;23848;49.798;10.228;2022-07-29T07:24:01;4.47;;;2.55;;
26756;SDS011;23848;49.798;10.228;2022-07-29T07:26:29;6.15;;;2.90;;
26756;SDS011;23848;49.798;10.228;2022-07-29T07:28:59;4.90;;;2.80;;
26756;SDS011;23848;49.798;10.228;2022-07-29T07:31:28;4.80;;;2.63;;
26756;SDS011;23848;49.798;10.228;2022-07-29T07:33:56;4.13;;;2.47;;
26756;SDS011;23848;49.798;10.228;2022-07-29T07:36:25;4.22;;;2.75;;
26756;SDS011;23848;49.798;10.228;2022-07-29T07:38:53;4.10;;;2.50;;
26756;SDS011;23848;49.798;10.228;2022-07-29T07:41:22;4.70;;;2.28;;
26756;SDS011;23848;49.798;10.228;2022-07-29T07:43:50;4.53;;;2.35;;
26756;SDS011;23848;49.798;10.228;2022-07-29T07:46:20;3.75;;;2.65;;
26756;SDS011;23848;49.798;10.228;2022-07-29T07:48:48;3.83;;;2.10;;
26756;SDS011;23848;49.798;10.228;2022-07-29T07:51:18;4.00;;;2.75;;
26756;SDS011;23848;49.798;10.228;2022-07-29T07:53:46;3.45;;;2.42;;
26756;SDS011;23848;49.798;10.228;2022-07-29T07:56:16;4.05;;;2.70;;
26756;SDS011;23848;49.798;10.228;2022-07-29T07:58:44;4.32;;;2.80;;
26756;SDS011;23848;49.798;10.228;2022-07-29T08:01:13;5.35;;;2.35;;
26756;SDS011;23848;49.798;10.228;2022-07-29T08:03:47;5.45;;;2.65;;
26756;SDS011;23848;49.798;10.228;2022-07-29T08:06:16;4.78;;;2.58;;
26756;SDS011;23848;49.798;10.228;2022-07-29T08:08:44;3.28;;;2.50;;
26756;SDS011;23848;49.798;10.228;2022-07-29T08:11:12;4.65;;;2.42;;
26756;SDS011;23848;49.798;10.228;2022-07-29T08:13:41;4.25;;;2.58;;
26756;SDS011;23848;49.798;10.228;2022-07-29T08:16:09;6.07;;;2.78;;
26756;SDS011;23848;49.798;10.228;2022-07-29T08:18:43;3.70;;;2.50;;
26756;SDS011;23848;49.798;10.228;2022-07-29T08:21:13;3.30;;;2.45;;
26756;SDS011;23848;49.798;10.228;2022-07-29T08:23:42;3.45;;;2.50;;
26756;SDS011;23848;49.798;10.228;2022-07-29T08:26:25;3.55;;;2.05;;
26756;SDS011;23848;49.798;10.228;2022-07-29T08:28:53;4.38;;;2.38;;
26756;SDS011;23848;49.798;10.228;2022-07-29T08:31:21;4.03;;;2.88;;
26756;SDS011;23848;49.798;10.228;2022-07-29T08:33:50;6.80;;;2.45;;
26756;SDS011;23848;49.798;10.228;2022-07-29T08:36:19;3.30;;;2.50;;
26756;SDS011;23848;49.798;10.228;2022-07-29T08:38:48;3.80;;;2.50;;
26756;SDS011;23848;49.798;10.228;2022-07-29T08:41:17;3.58;;;2.55;;
26756;SDS011;23848;49.798;10.228;2022-07-29T08:43:46;3.38;;;2.58;;
26756;SDS011;23848;49.798;10.228;2022-07-29T08:46:14;5.55;;;2.58;;
26756;SDS011;23848;49.798;10.228;2022-07-29T08:48:44;3.47;;;2.30;;
26756;SDS011;23848;49.798;10.228;2022-07-29T08:51:13;4.28;;;2.45;;
26756;SDS011;23848;49.798;10.228;2022-07-29T08:53:44;4.53;;;2.45;;
26756;SDS011;23848;49.798;10.228;2022-07-29T08:56:13;4.78;;;2.25;;
26756;SDS011;23848;49.798;10.228;2022-07-29T08:58:43;3.90;;;2.80;;
26756;SDS011;23848;49.798;10.228;2022-07-29T09:01:18;2.85;;;2.20;;
26756;SDS011;23848;49.798;10.228;2022-07-29T09:04:01;4.45;;;2.58;;
26756;SDS011;23848;49.798;10.228;2022-07-29T09:06:31;2.78;;;2.13;;
26756;SDS011;23848;49.798;10.228;2022-07-29T09:09:02;3.58;;;2.28;;
26756;SDS011;23848;49.798;10.228;2022-07-29T09:11:32;3.13;;;2.30;;
26756;SDS011;23848;49.798;10.228;2022-07-29T09:14:00;3.53;;;2.25;;
26756;SDS011;23848;49.798;10.228;2022-07-29T09:16:43;4.65;;;2.47;;
26756;SDS011;23848;49.798;10.228;2022-07-29T09:19:27;3.42;;;2.50;;
26756;SDS011;23848;49.798;10.228;2022-07-29T09:21:56;3.67;;;2.40;;
26756;SDS011;23848;49.798;10.228;2022-07-29T09:24:25;3.65;;;2.67;;
26756;SDS011;23848;49.798;10.228;2022-07-29T09:26:54;4.15;;;2.28;;
26756;SDS011;23848;49.798;10.228;2022-07-29T09:29:22;4.80;;;2.47;;
26756;SDS011;23848;49.798;10.228;2022-07-29T09:31:52;3.08;;;2.22;;
26756;SDS011;23848;49.798;10.228;2022-07-29T09:34:21;4.68;;;2.22;;
26756;SDS011;23848;49.798;10.228;2022-07-29T09:36:51;3.28;;;2.35;;
26756;SDS011;23848;49.798;10.228;2022-07-29T09:39:28;3.20;;;2.45;;
26756;SDS011;23848;49.798;10.228;2022-07-29T09:41:57;5.05;;;2.95;;
26756;SDS011;23848;49.798;10.228;2022-07-29T09:44:26;4.60;;;2.08;;
26756;SDS011;23848;49.798;10.228;2022-07-29T09:46:55;4.50;;;2.10;;
26756;SDS011;23848;49.798;10.228;2022-07-29T09:49:25;3.47;;;2.17;;
26756;SDS011;23848;49.798;10.228;2022-07-29T09:52:03;2.80;;;2.10;;
26756;SDS011;23848;49.798;10.228;2022-07-29T09:54:33;3.67;;;2.70;;
26756;SDS011;23848;49.798;10.228;2022-07-29T09:57:04;3.92;;;2.28;;
26756;SDS011;23848;49.798;10.228;2022-07-29T09:59:33;4.60;;;2.50;;
26756;SDS011;23848;49.798;10.228;2022-07-29T10:02:15;4.85;;;2.25;;
26756;SDS011;23848;49.798;10.228;2022-07-29T10:04:49;4.10;;;2.15;;
26756;SDS011;23848;49.798;10.228;2022-07-29T10:07:17;6.55;;;2.58;;
26756;SDS011;23848;49.798;10.228;2022-07-29T10:09:50;3.63;;;2.28;;
26756;SDS011;23848;49.798;10.228;2022-07-29T10:12:20;2.92;;;2.05;;
26756;SDS011;23848;49.798;10.228;2022-07-29T10:14:49;3.65;;;2.47;;
26756;SDS011;23848;49.798;10.228;2022-07-29T10:17:18;3.35;;;2.40;;
26756;SDS011;23848;49.798;10.228;2022-07-29T10:19:46;4.72;;;2.33;;
26756;SDS011;23848;49.798;10.228;2022-07-29T10:22:16;5.63;;;2.80;;
26756;SDS011;23848;49.798;10.228;2022-07-29T10:25:06;4.32;;;2.42;;
26756;SDS011;23848;49.798;10.228;2022-07-29T10:27:35;3.40;;;2.50;;
26756;SDS011;23848;49.798;10.228;2022-07-29T10:30:03;4.35;;;2.90;;
26756;SDS011;23848;49.798;10.228;2022-07-29T10:32:34;3.45;;;2.33;;
26756;SDS011;23848;49.798;10.228;2022-07-29T10:35:15;4.35;;;2.45;;
26756;SDS011;23848;49.798;10.228;2022-07-29T10:37:52;3.65;;;2.47;;
26756;SDS011;23848;49.798;10.228;2022-07-29T10:40:31;4.38;;;2.35;;
26756;SDS011;23848;49.798;10.228;2022-07-29T10:43:23;3.35;;;2.30;;
26756;SDS011;23848;49.798;10.228;2022-07-29T10:45:56;6.63;;;2.30;;
26756;SDS011;23848;49.798;10.228;2022-07-29T10:48:24;5.90;;;2.63;;
26756;SDS011;23848;49.798;10.228;2022-07-29T10:50:53;5.32;;;2.60;;
26756;SDS011;23848;49.798;10.228;2022-07-29T10:53:23;4.60;;;2.60;;
26756;SDS011;23848;49.798;10.228;2022-07-29T10:56:00;3.55;;;2.53;;
26756;SDS011;23848;49.798;10.228;2022-07-29T10:58:31;3.65;;;2.20;;
26756;SDS011;23848;49.798;10.228;2022-07-29T11:01:28;4.32;;;2.50;;
26756;SDS011;23848;49.798;10.228;2022-07-29T11:04:04;3.63;;;2.60;;
26756;SDS011;23848;49.798;10.228;2022-07-29T11:09:18;3.60;;;2.45;;
26756;SDS011;23848;49.798;10.228;2022-07-29T11:12:02;3.03;;;2.40;;
26756;SDS011;23848;49.798;10.228;2022-07-29T11:17:14;3.50;;;2.22;;
26756;SDS011;23848;49.798;10.228;2022-07-29T11:19:45;6.00;;;2.53;;
26756;SDS011;23848;49.798;10.228;2022-07-29T11:22:31;4.07;;;2.70;;
26756;SDS011;23848;49.798;10.228;2022-07-29T11:25:12;4.80;;;3.22;;
26756;SDS011;23848;49.798;10.228;2022-07-29T11:27:43;4.78;;;2.60;;
26756;SDS011;23848;49.798;10.228;2022-07-29T11:30:13;4.05;;;3.00;;
26756;SDS011;23848;49.798;10.228;2022-07-29T11:32:42;5.15;;;2.63;;
26756;SDS011;23848;49.798;10.228;2022-07-29T11:35:15;5.53;;;2.83;;
26756;SDS011;23848;49.798;10.228;2022-07-29T11:43:47;5.88;;;2.70;;
26756;SDS011;23848;49.798;10.228;2022-07-29T11:46:18;3.97;;;2.70;;
26756;SDS011;23848;49.798;10.228;2022-07-29T11:48:50;3.20;;;2.53;;
26756;SDS011;23848;49.798;10.228;2022-07-29T11:51:19;4.55;;;2.70;;
26756;SDS011;23848;49.798;10.228;2022-07-29T11:54:07;4.18;;;2.80;;
26756;SDS011;23848;49.798;10.228;2022-07-29T11:56:41;3.63;;;2.88;;
26756;SDS011;23848;49.798;10.228;2022-07-29T11:59:13;3.42;;;2.80;;
26756;SDS011;23848;49.798;10.228;2022-07-29T12:01:51;4.30;;;2.80;;
26756;SDS011;23848;49.798;10.228;2022-07-29T12:04:47;3.78;;;2.95;;
26756;SDS011;23848;49.798;10.228;2022-07-29T12:07:17;3.85;;;2.90;;
26756;SDS011;23848;49.798;10.228;2022-07-29T12:09:49;3.22;;;2.50;;
26756;SDS011;23848;49.798;10.228;2022-07-29T12:12:22;6.32;;;2.97;;
26756;SDS011;23848;49.798;10.228;2022-07-29T12:14:55;3.45;;;2.97;;
26756;SDS011;23848;49.798;10.228;2022-07-29T12:17:25;4.07;;;2.60;;
26756;SDS011;23848;49.798;10.228;2022-07-29T12:19:56;4.25;;;2.60;;
26756;SDS011;23848;49.798;10.228;2022-07-29T12:22:25;4.03;;;2.85;;
26756;SDS011;23848;49.798;10.228;2022-07-29T12:24:54;3.97;;;2.88;;
26756;SDS011;23848;49.798;10.228;2022-07-29T12:27:43;6.43;;;2.85;;
26756;SDS011;23848;49.798;10.228;2022-07-29T12:30:14;3.33;;;2.40;;
26756;SDS011;23848;49.798;10.228;2022-07-29T12:32:44;3.20;;;2.70;;
26756;SDS011;23848;49.798;10.228;2022-07-29T12:35:13;6.22;;;2.70;;
26756;SDS011;23848;49.798;10.228;2022-07-29T12:37:42;3.80;;;2.70;;
26756;SDS011;23848;49.798;10.228;2022-07-29T12:40:12;4.15;;;2.72;;
26756;SDS011;23848;49.798;10.228;2022-07-29T12:42:53;3.92;;;2.83;;
26756;SDS011;23848;49.798;10.228;2022-07-29T12:45:34;4.00;;;2.78;;
26756;SDS011;23848;49.798;10.228;2022-07-29T12:48:06;3.75;;;2.92;;
26756;SDS011;23848;49.798;10.228;2022-07-29T12:50:36;4.90;;;2.88;;
26756;SDS011;23848;49.798;10.228;2022-07-29T12:53:10;2.97;;;2.67;;
26756;SDS011;23848;49.798;10.228;2022-07-29T12:55:44;3.50;;;2.90;;
26756;SDS011;23848;49.798;10.228;2022-07-29T12:58:25;4.60;;;2.92;;
26756;SDS011;23848;49.798;10.228;2022-07-29T13:01:06;4.65;;;2.97;;
26756;SDS011;23848;49.798;10.228;2022-07-29T13:03:43;3.97;;;2.63;;
26756;SDS011;23848;49.798;10.228;2022-07-29T13:06:32;3.20;;;2.47;;
26756;SDS011;23848;49.798;10.228;2022-07-29T13:09:02;3.83;;;2.80;;
26756;SDS011;23848;49.798;10.228;2022-07-29T13:11:31;4.13;;;3.13;;
26756;SDS011;23848;49.798;10.228;2022-07-29T13:14:03;3.97;;;3.10;;
26756;SDS011;23848;49.798;10.228;2022-07-29T13:16:33;6.75;;;2.92;;
26756;SDS011;23848;49.798;10.228;2022-07-29T13:19:03;4.10;;;2.88;;
26756;SDS011;23848;49.798;10.228;2022-07-29T13:24:07;3.05;;;2.63;;
26756;SDS011;23848;49.798;10.228;2022-07-29T13:26:45;3.75;;;2.90;;
26756;SDS011;23848;49.798;10.228;2022-07-29T13:29:13;4.40;;;3.38;;
26756;SDS011;23848;49.798;10.228;2022-07-29T13:31:43;5.43;;;3.05;;
26756;SDS011;23848;49.798;10.228;2022-07-29T13:34:12;5.50;;;3.03;;
26756;SDS011;23848;49.798;10.228;2022-07-29T13:36:40;3.22;;;2.60;;
26756;SDS011;23848;49.798;10.228;2022-07-29T13:39:09;4.35;;;2.88;;
26756;SDS011;23848;49.798;10.228;2022-07-29T13:41:37;4.30;;;2.60;;
26756;SDS011;23848;49.798;10.228;2022-07-29T13:44:06;5.32;;;3.03;;
26756;SDS011;23848;49.798;10.228;2022-07-29T13:46:34;4.80;;;2.90;;
26756;SDS011;23848;49.798;10.228;2022-07-29T13:49:06;4.80;;;2.80;;
26756;SDS011;23848;49.798;10.228;2022-07-29T13:51:35;4.53;;;3.20;;
26756;SDS011;23848;49.798;10.228;2022-07-29T13:54:03;9.05;;;3.10;;
26756;SDS011;23848;49.798;10.228;2022-07-29T13:56:32;3.45;;;2.83;;
26756;SDS011;23848;49.798;10.228;2022-07-29T13:59:00;3.67;;;2.92;;
26756;SDS011;23848;49.798;10.228;2022-07-29T14:01:29;4.07;;;3.22;;
26756;SDS011;23848;49.798;10.228;2022-07-29T14:03:58;3.80;;;3.08;;
26756;SDS011;23848;49.798;10.228;2022-07-29T14:06:30;4.63;;;3.00;;
26756;SDS011;23848;49.798;10.228;2022-07-29T14:08:58;3.25;;;2.88;;
26756;SDS011;23848;49.798;10.228;2022-07-29T14:11:26;3.95;;;2.92;;
26756;SDS011;23848;49.798;10.228;2022-07-29T14:13:55;5.75;;;3.50;;
26756;SDS011;23848;49.798;10.228;2022-07-29T14:16:23;3.95;;;2.92;;
26756;SDS011;23848;49.798;10.228;2022-07-29T14:18:52;4.20;;;2.78;;
26756;SDS011;23848;49.798;10.228;2022-07-29T14:21:20;4.53;;;3.60;;
26756;SDS011;23848;49.798;10.228;2022-07-29T14:23:51;2.95;;;2.65;;
26756;SDS011;23848;49.798;10.228;2022-07-29T14:26:21;4.90;;;3.05;;
26756;SDS011;23848;49.798;10.228;2022-07-29T14:28:50;5.22;;;3.40;;
26756;SDS011;23848;49.798;10.228;2022-07-29T14:31:18;4.35;;;3.10;;
26756;SDS011;23848;49.798;10.228;2022-07-29T14:33:47;4.82;;;3.08;;
26756;SDS011;23848;49.798;10.228;2022-07-29T14:36:15;5.00;;;3.10;;
26756;SDS011;23848;49.798;10.228;2022-07-29T14:38:44;3.70;;;2.75;;
26756;SDS011;23848;49.798;10.228;2022-07-29T14:41:15;3.75;;;2.97;;
26756;SDS011;23848;49.798;10.228;2022-07-29T14:43:49;3.38;;;2.55;;
26756;SDS011;23848;49.798;10.228;2022-07-29T14:46:22;4.07;;;2.55;;
26756;SDS011;23848;49.798;10.228;2022-07-29T14:48:51;4.20;;;2.83;;
26756;SDS011;23848;49.798;10.228;2022-07-29T14:51:19;4.13;;;2.88;;
26756;SDS011;23848;49.798;10.228;2022-07-29T14:53:48;3.78;;;2.67;;
26756;SDS011;23848;49.798;10.228;2022-07-29T14:56:17;3.67;;;2.90;;
26756;SDS011;23848;49.798;10.228;2022-07-29T14:59:02;5.05;;;3.05;;
26756;SDS011;23848;49.798;10.228;2022-07-29T15:01:32;4.05;;;2.92;;
26756;SDS011;23848;49.798;10.228;2022-07-29T15:04:00;6.45;;;3.22;;
26756;SDS011;23848;49.798;10.228;2022-07-29T15:06:29;4.20;;;2.67;;
26756;SDS011;23848;49.798;10.228;2022-07-29T15:08:58;4.60;;;3.15;;
26756;SDS011;23848;49.798;10.228;2022-07-29T15:11:28;4.32;;;2.78;;
26756;SDS011;23848;49.798;10.228;2022-07-29T15:14:03;4.03;;;3.13;;